Time;durP1;ratioP1;P1;durP2;ratioP2;P2;SDS_P1;SDS_P2;PMS_P1;PMS_P2;Temp;Humidity;BMP_temperature;BMP_pressure;BME280_temperature;BME280_humidity;BME280_pressure;Samples;Min_cycle;Max_cycle;Signal;HPM_P1;HPM_P2
2022/08/26 00:02:09;;;;;;;2.42;1.52;;;23.90;62.00;;;;;;7373928;19;20710;-80
2022/08/26 00:04:38;;;;;;;2.65;1.80;;;23.90;61.80;;;;;;7373879;19;20011;-80
2022/08/26 00:07:07;;;;;;;3.28;1.30;;;23.60;62.70;;;;;;7371879;19;20094;-80
2022/08/26 00:09:36;;;;;;;2.63;1.45;;;23.60;63.00;;;;;;7374347;19;20041;-80
2022/08/26 00:12:05;;;;;;;1.50;1.40;;;23.80;62.90;;;;;;7396426;19;20047;-80
2022/08/26 00:14:34;;;;;;;3.80;1.75;;;23.80;62.70;;;;;;7381555;19;20096;-82
2022/08/26 00:17:04;;;;;;;5.20;1.90;;;23.70;62.70;;;;;;7390716;19;20044;-80
2022/08/26 00:19:53;;;;;;;4.30;1.92;;;23.60;63.00;;;;;;7391976;19;20021;-80
2022/08/26 00:22:22;;;;;;;2.60;1.50;;;23.70;62.80;;;;;;7386745;19;20010;-81
2022/08/26 00:24:50;;;;;;;2.55;2.03;;;23.90;62.40;;;;;;7380049;19;20039;-79
2022/08/26 00:27:19;;;;;;;4.43;1.85;;;23.50;63.00;;;;;;7401475;19;20019;-81
2022/08/26 00:29:48;;;;;;;2.17;1.67;;;23.40;63.80;;;;;;7372871;19;20014;-81
2022/08/26 00:32:17;;;;;;;6.05;2.10;;;23.30;64.10;;;;;;7373938;19;20011;-81
2022/08/26 00:34:48;;;;;;;3.40;1.60;;;23.30;64.40;;;;;;7373627;19;20014;-80
2022/08/26 00:37:17;;;;;;;;;;;23.50;64.10;;;;;;7374111;19;20015;-79
2022/08/26 00:39:46;;;;;;;4.13;2.08;;;23.50;63.80;;;;;;7374127;19;20238;-82
2022/08/26 00:42:15;;;;;;;3.72;1.85;;;23.50;63.50;;;;;;7394537;19;20074;-79
2022/08/26 00:44:43;;;;;;;3.15;1.92;;;23.40;63.80;;;;;;7372415;19;20608;-81
2022/08/26 00:47:19;;;;;;;8.63;2.03;;;23.50;63.80;;;;;;7373886;19;20011;-81
2022/08/26 00:49:51;;;;;;;5.88;1.90;;;23.40;64.00;;;;;;7372707;19;20027;-81
2022/08/26 00:52:23;;;;;;;3.75;1.75;;;23.40;64.10;;;;;;7371673;19;20010;-81
2022/08/26 00:54:54;;;;;;;;;;;23.60;64.40;;;;;;7372638;19;20014;-81
2022/08/26 00:57:24;;;;;;;1.88;1.70;;;23.80;63.30;;;;;;7395012;19;19933;-80
2022/08/26 00:59:56;;;;;;;3.00;2.30;;;23.90;63.00;;;;;;7372442;19;20435;-80
2022/08/26 01:02:25;;;;;;;2.85;2.20;;;23.90;62.60;;;;;;7378414;19;20115;-81
2022/08/26 01:04:59;;;;;;;5.32;2.17;;;23.70;63.30;;;;;;7382858;19;20035;-81
2022/08/26 01:07:29;;;;;;;2.65;1.80;;;23.90;63.10;;;;;;7373760;19;20439;-81
2022/08/26 01:09:58;;;;;;;7.32;2.45;;;24.00;62.80;;;;;;7372949;19;20006;-81
2022/08/26 01:12:32;;;;;;;6.57;2.58;;;23.70;63.30;;;;;;7393894;19;20021;-81
2022/08/26 01:15:01;;;;;;;4.65;2.80;;;23.80;63.20;;;;;;7370487;19;20032;-80
2022/08/26 01:17:30;;;;;;;3.33;2.72;;;23.80;63.00;;;;;;7372024;19;20015;-80
2022/08/26 01:20:07;;;;;;;5.30;2.63;;;23.60;63.70;;;;;;7376204;19;20015;-80
2022/08/26 01:22:49;;;;;;;4.82;2.90;;;23.60;63.80;;;;;;7376721;19;20011;-81
2022/08/26 01:25:19;;;;;;;4.65;2.80;;;23.70;63.80;;;;;;7376622;19;20021;-80
2022/08/26 01:27:51;;;;;;;5.05;2.90;;;23.60;63.80;;;;;;7376779;19;26257;-80
2022/08/26 01:30:20;;;;;;;7.75;3.75;;;23.50;64.10;;;;;;7399976;19;20594;-80
2022/08/26 01:32:52;;;;;;;4.95;3.10;;;23.30;64.60;;;;;;7378718;19;20018;-80
2022/08/26 01:35:21;;;;;;;6.85;4.00;;;23.10;65.60;;;;;;7377658;19;20019;-81
2022/08/26 01:37:56;;;;;;;6.03;3.60;;;22.90;65.80;;;;;;7378798;19;20017;-80
2022/08/26 01:40:31;;;;;;;4.75;3.15;;;22.80;66.40;;;;;;7377144;19;20018;-80
2022/08/26 01:43:01;;;;;;;6.63;3.72;;;23.10;66.00;;;;;;7379292;19;20018;-80
2022/08/26 01:45:32;;;;;;;4.65;3.33;;;23.10;65.50;;;;;;7378399;19;20092;-81
2022/08/26 01:48:06;;;;;;;6.75;4.38;;;23.40;65.10;;;;;;7396950;19;20117;-80
2022/08/26 01:50:37;;;;;;;8.52;4.15;;;23.10;65.40;;;;;;7377163;19;20090;-80
2022/08/26 01:53:12;;;;;;;7.05;4.88;;;23.10;65.70;;;;;;7378433;19;20031;-81
2022/08/26 01:55:44;;;;;;;7.72;4.25;;;23.00;66.00;;;;;;7376997;19;20066;-81
2022/08/26 01:58:19;;;;;;;6.45;4.53;;;23.00;66.00;;;;;;7375242;19;20025;-81
2022/08/26 02:00:48;;;;;;;8.85;5.03;;;23.00;66.20;;;;;;7377629;19;20030;-81
2022/08/26 02:03:21;;;;;;;6.75;4.85;;;22.90;66.10;;;;;;7397736;19;20019;-80
2022/08/26 02:05:54;;;;;;;6.80;4.35;;;23.00;66.30;;;;;;7379054;19;20086;-80
2022/08/26 02:08:29;;;;;;;9.60;6.85;;;23.20;65.70;;;;;;7379357;19;20015;-80
2022/08/26 02:10:58;;;;;;;9.50;5.70;;;22.90;66.10;;;;;;7378683;19;20018;-80
2022/08/26 02:13:31;;;;;;;10.32;6.00;;;22.90;66.60;;;;;;7376037;19;20070;-80
2022/08/26 02:16:02;;;;;;;10.95;6.05;;;22.90;66.50;;;;;;7377739;19;20015;-80
2022/08/26 02:18:34;;;;;;;9.95;5.95;;;22.90;66.60;;;;;;7374560;19;20022;-81
2022/08/26 02:21:03;;;;;;;9.25;6.05;;;22.80;66.40;;;;;;7401829;19;20014;-81
2022/08/26 02:23:35;;;;;;;9.93;6.03;;;23.00;66.40;;;;;;7379477;19;20077;-80
2022/08/26 02:26:10;;;;;;;9.15;5.90;;;23.10;66.20;;;;;;7374950;19;20049;-80
2022/08/26 02:28:44;;;;;;;10.52;6.68;;;23.10;65.80;;;;;;7376891;19;20086;-81
2022/08/26 02:31:14;;;;;;;9.38;6.30;;;23.00;66.00;;;;;;7376127;19;20204;-80
2022/08/26 02:33:43;;;;;;;7.97;5.97;;;22.80;66.70;;;;;;7375986;19;20097;-81
2022/08/26 02:36:12;;;;;;;11.38;6.57;;;22.80;66.90;;;;;;7396324;19;20039;-80
2022/08/26 02:38:43;;;;;;;11.13;6.85;;;22.70;67.00;;;;;;7374855;19;20383;-80
2022/08/26 02:41:12;;;;;;;13.45;7.80;;;22.90;66.40;;;;;;7375642;19;20062;-80
2022/08/26 02:43:41;;;;;;;11.18;6.63;;;22.70;66.70;;;;;;7374901;19;20086;-80
2022/08/26 02:46:10;;;;;;;13.10;6.95;;;22.90;66.50;;;;;;7374405;19;20021;-81
2022/08/26 02:48:39;;;;;;;9.82;7.15;;;23.00;66.20;;;;;;7375661;19;20022;-81
2022/08/26 02:51:08;;;;;;;13.75;7.28;;;22.90;66.30;;;;;;7397733;19;20023;-80
2022/08/26 02:53:36;;;;;;;11.25;6.13;;;22.60;67.30;;;;;;7374477;19;20027;-80
2022/08/26 02:56:12;;;;;;;9.98;7.32;;;22.80;67.00;;;;;;7377998;19;20097;-80
2022/08/26 02:58:41;;;;;;;10.43;6.75;;;22.80;66.80;;;;;;7385010;19;20119;-81
2022/08/26 03:01:10;;;;;;;14.63;7.47;;;22.90;66.60;;;;;;7384403;19;20014;-81
2022/08/26 03:03:38;;;;;;;11.20;7.57;;;23.00;66.30;;;;;;7380535;19;20073;-81
2022/08/26 03:06:08;;;;;;;14.50;7.63;;;22.60;66.90;;;;;;7396272;19;20025;-80
2022/08/26 03:08:36;;;;;;;11.93;7.90;;;22.60;67.10;;;;;;7372901;19;20509;-80
2022/08/26 03:11:07;;;;;;;11.38;7.50;;;22.40;68.00;;;;;;7373294;19;20581;-80
2022/08/26 03:13:36;;;;;;;;;;;22.40;68.40;;;;;;7375690;19;20007;-80
2022/08/26 03:16:06;;;;;;;16.00;7.75;;;22.60;67.90;;;;;;7373407;19;19915;-81
2022/08/26 03:18:35;;;;;;;11.57;7.75;;;22.70;67.30;;;;;;7373117;19;20090;-80
2022/08/26 03:21:07;;;;;;;14.90;8.52;;;22.80;67.00;;;;;;7394339;19;20513;-81
2022/08/26 03:23:36;;;;;;;14.65;9.10;;;22.70;66.70;;;;;;7373290;19;20007;-81
2022/08/26 03:26:09;;;;;;;14.13;8.45;;;22.70;67.00;;;;;;7373603;19;20054;-80
2022/08/26 03:30:38;;;;;;;13.73;9.45;;;22.70;66.90;;;;;;7373766;19;20006;-81
2022/08/26 03:31:25;;;;;;;16.60;9.02;;;22.70;66.90;;;;;;7373589;19;20372;-80
2022/08/26 03:33:53;;;;;;;16.25;9.25;;;22.60;67.10;;;;;;7373676;19;20110;-81
2022/08/26 03:36:22;;;;;;;14.65;8.85;;;22.30;68.10;;;;;;7395741;19;20751;-80
2022/08/26 03:38:51;;;;;;;16.23;8.70;;;22.40;68.10;;;;;;7376047;19;20019;-81
2022/08/26 03:41:22;;;;;;;19.95;10.32;;;22.50;68.00;;;;;;7380953;19;20022;-81
2022/08/26 03:43:55;;;;;;;16.95;9.55;;;22.70;67.30;;;;;;7376704;19;20031;-80
2022/08/26 03:46:24;;;;;;;18.13;9.80;;;22.60;67.40;;;;;;7373147;19;20426;-81
2022/08/26 03:48:52;;;;;;;11.98;8.20;;;22.60;67.40;;;;;;7373660;19;20015;-81
2022/08/26 03:51:21;;;;;;;16.85;9.75;;;22.70;67.50;;;;;;7392677;19;20039;-81
2022/08/26 03:53:50;;;;;;;20.70;10.50;;;22.50;67.70;;;;;;7372270;19;20019;-81
2022/08/26 03:56:21;;;;;;;16.85;10.60;;;22.40;68.20;;;;;;7374505;19;20024;-80
2022/08/26 03:58:50;;;;;;;16.08;10.05;;;22.50;68.90;;;;;;7374248;19;20090;-81
2022/08/26 04:01:19;;;;;;;16.52;10.52;;;22.40;68.20;;;;;;7372314;19;20371;-80
2022/08/26 04:04:00;;;;;;;18.65;10.77;;;22.20;68.60;;;;;;7376461;19;20019;-80
2022/08/26 04:06:31;;;;;;;16.38;10.68;;;22.20;69.00;;;;;;7392672;19;20394;-79
2022/08/26 04:09:04;;;;;;;17.45;11.00;;;22.20;68.90;;;;;;7401934;19;20025;-80
2022/08/26 04:11:38;;;;;;;16.75;9.82;;;22.10;70.10;;;;;;7379031;19;20445;-81
2022/08/26 04:14:09;;;;;;;17.20;10.27;;;22.30;69.00;;;;;;7376754;19;20029;-81
2022/08/26 04:16:38;;;;;;;18.50;9.60;;;22.40;69.40;;;;;;7379116;19;20022;-81
2022/08/26 04:19:06;;;;;;;17.25;10.07;;;22.50;68.10;;;;;;7380163;19;20089;-80
2022/08/26 04:21:37;;;;;;;16.55;10.45;;;22.50;68.40;;;;;;7380115;19;20039;-80
2022/08/26 04:24:06;;;;;;;13.95;9.70;;;22.40;68.60;;;;;;7400355;19;20025;-81
2022/08/26 04:26:38;;;;;;;17.17;11.65;;;22.50;68.40;;;;;;7376695;19;20117;-81
2022/08/26 04:29:09;;;;;;;21.65;11.75;;;22.60;67.80;;;;;;7378050;19;20036;-80
2022/08/26 04:31:38;;;;;;;18.75;10.35;;;22.70;67.90;;;;;;7374679;19;20018;-81
2022/08/26 04:34:08;;;;;;;26.27;11.90;;;22.80;67.60;;;;;;7373648;19;20031;-81
2022/08/26 04:36:37;;;;;;;18.23;11.57;;;23.00;66.90;;;;;;7372119;19;20019;-80
2022/08/26 04:39:06;;;;;;;21.55;11.18;;;22.60;67.90;;;;;;7394245;19;20028;-81
2022/08/26 04:41:39;;;;;;;13.82;9.95;;;22.60;68.00;;;;;;7372430;19;20022;-81
2022/08/26 04:44:08;;;;;;;19.13;10.90;;;22.70;68.10;;;;;;7372697;19;20387;-81
2022/08/26 04:46:38;;;;;;;15.57;10.32;;;22.70;68.00;;;;;;7371987;19;20085;-80
2022/08/26 04:49:07;;;;;;;15.93;8.90;;;22.70;68.30;;;;;;7372712;19;20035;-81
2022/08/26 04:51:36;;;;;;;15.65;10.18;;;22.80;67.70;;;;;;7371232;19;20440;-81
2022/08/26 04:54:05;;;;;;;15.20;10.23;;;22.90;67.60;;;;;;7395095;19;20054;-80
2022/08/26 04:56:40;;;;;;;21.55;12.45;;;23.00;67.30;;;;;;7378975;19;20106;-81
2022/08/26 04:59:11;;;;;;;23.63;12.05;;;22.90;67.00;;;;;;7381433;19;20425;-80
2022/08/26 05:01:43;;;;;;;23.33;11.00;;;22.90;67.20;;;;;;7387441;19;20015;-81
2022/08/26 05:04:12;;;;;;;21.55;11.18;;;23.00;67.20;;;;;;7386901;19;20010;-81
2022/08/26 05:06:41;;;;;;;23.67;12.57;;;23.10;67.00;;;;;;7378188;19;20026;-81
2022/08/26 05:09:09;;;;;;;17.58;11.60;;;23.20;66.40;;;;;;7401632;19;20105;-81
2022/08/26 05:11:41;;;;;;;25.98;12.25;;;23.10;66.50;;;;;;7379395;19;20106;-81
2022/08/26 05:14:10;;;;;;;21.73;11.70;;;23.10;66.70;;;;;;7376837;19;20417;-81
2022/08/26 05:16:39;;;;;;;25.05;13.20;;;23.20;66.60;;;;;;7377505;19;20007;-81
2022/08/26 05:19:08;;;;;;;27.27;12.77;;;23.20;66.30;;;;;;7378539;19;20054;-81
2022/08/26 05:21:37;;;;;;;22.90;13.80;;;22.90;67.30;;;;;;7378395;19;20029;-80
2022/08/26 05:24:07;;;;;;;21.27;12.77;;;22.70;67.80;;;;;;7400130;19;20019;-81
2022/08/26 05:26:35;;;;;;;21.60;12.43;;;22.70;68.20;;;;;;7376746;19;20018;-81
2022/08/26 05:29:07;;;;;;;26.83;12.27;;;22.70;68.10;;;;;;7377262;19;20501;-81
2022/08/26 05:31:36;;;;;;;;;;;22.80;68.00;;;;;;7378383;19;20098;-81
2022/08/26 05:34:06;;;;;;;24.15;12.10;;;22.80;67.70;;;;;;7376099;19;20307;-80
2022/08/26 05:36:36;;;;;;;20.67;13.10;;;22.90;68.00;;;;;;7376765;19;20028;-80
2022/08/26 05:39:08;;;;;;;26.10;14.13;;;22.80;68.10;;;;;;7396750;19;20047;-81
2022/08/26 05:41:39;;;;;;;32.17;13.23;;;22.50;68.70;;;;;;7386343;19;20122;-80
2022/08/26 05:44:12;;;;;;;22.90;13.50;;;22.40;69.00;;;;;;7380982;19;20007;-81
2022/08/26 05:46:43;;;;;;;26.13;14.10;;;22.30;69.60;;;;;;7381849;19;20015;-81
2022/08/26 05:49:12;;;;;;;22.03;13.10;;;22.40;69.30;;;;;;7374642;19;20011;-81
2022/08/26 05:51:45;;;;;;;30.45;15.30;;;22.30;69.70;;;;;;7376941;19;20398;-80
2022/08/26 05:54:14;;;;;;;26.35;14.05;;;22.20;69.50;;;;;;7400682;19;20010;-81
2022/08/26 05:56:42;;;;;;;28.05;15.27;;;22.40;69.60;;;;;;7377492;19;20577;-81
2022/08/26 05:59:17;;;;;;;25.52;14.57;;;22.50;68.80;;;;;;7381006;19;20090;-81
2022/08/26 06:01:46;;;;;;;24.88;13.25;;;22.40;69.00;;;;;;7381865;19;20084;-81
2022/08/26 06:04:15;;;;;;;32.20;16.33;;;22.50;69.20;;;;;;7380022;19;20509;-80
2022/08/26 06:06:44;;;;;;;31.13;16.50;;;22.30;68.90;;;;;;7379965;19;20102;-81
2022/08/26 06:09:13;;;;;;;30.42;14.88;;;22.10;70.10;;;;;;7403655;19;20089;-81
2022/08/26 06:11:42;;;;;;;23.63;13.20;;;22.20;70.00;;;;;;7379244;19;20090;-81
2022/08/26 06:14:10;;;;;;;27.58;15.45;;;22.50;69.40;;;;;;7378179;19;20024;-81
2022/08/26 06:16:43;;;;;;;24.83;14.90;;;22.60;68.80;;;;;;7376450;19;20045;-81
2022/08/26 06:19:15;;;;;;;31.08;14.98;;;22.70;68.60;;;;;;7376186;19;20010;-81
2022/08/26 06:21:47;;;;;;;30.55;15.80;;;22.50;68.70;;;;;;7383577;19;20034;-81
2022/08/26 06:27:00;;;;;;;27.27;15.82;;;22.30;69.00;;;;;;7377026;19;20006;-81
2022/08/26 06:29:29;;;;;;;;;;;22.20;69.60;;;;;;7377156;19;20017;-81
2022/08/26 06:32:02;;;;;;;29.27;16.67;;;22.30;69.60;;;;;;7375902;19;20007;-81
2022/08/26 06:34:32;;;;;;;27.35;16.23;;;22.30;69.20;;;;;;7375012;19;20011;-81
2022/08/26 06:37:04;;;;;;;28.63;16.90;;;22.30;69.40;;;;;;7373667;19;20010;-81
2022/08/26 06:39:33;;;;;;;29.58;16.10;;;22.30;69.30;;;;;;7375660;19;20038;-80
2022/08/26 06:42:03;;;;;;;34.22;16.35;;;22.50;69.00;;;;;;7396417;19;20182;-81
2022/08/26 06:44:32;;;;;;;27.02;15.88;;;22.50;68.50;;;;;;7375047;19;20093;-81
2022/08/26 06:47:03;;;;;;;27.13;15.23;;;22.40;68.40;;;;;;7373332;19;20688;-83
2022/08/26 06:49:31;;;;;;;;;;;22.50;68.40;;;;;;7374604;19;20035;-79
2022/08/26 06:52:00;;;;;;;23.15;13.35;;;22.50;68.00;;;;;;7373924;19;19949;-81
2022/08/26 06:59:37;;;;;;;24.83;15.25;;;22.70;68.30;;;;;;7366640;19;20043;-85
2022/08/26 07:02:09;;;;;;;28.92;14.65;;;22.80;67.10;;;;;;7381082;19;20062;-83
2022/08/26 07:04:38;;;;;;;23.55;14.23;;;22.80;66.70;;;;;;7385649;19;20106;-84
2022/08/26 07:07:06;;;;;;;27.67;14.82;;;22.70;67.60;;;;;;7382649;19;20026;-83
2022/08/26 07:09:36;;;;;;;23.20;14.10;;;22.70;66.40;;;;;;7376354;19;20022;-84
2022/08/26 07:12:05;;;;;;;20.92;13.00;;;22.50;67.10;;;;;;7397180;19;20657;-84
2022/08/26 07:14:36;;;;;;;20.00;13.80;;;22.60;66.90;;;;;;7377107;19;20445;-84
2022/08/26 07:17:05;;;;;;;24.10;15.40;;;22.60;66.90;;;;;;7375840;19;20035;-79
2022/08/26 07:19:37;;;;;;;28.90;17.13;;;22.40;67.40;;;;;;7374243;19;20010;-80
2022/08/26 07:22:06;;;;;;;;;;;22.40;66.80;;;;;;7376571;19;20018;-81
2022/08/26 07:24:37;;;;;;;63.72;38.70;;;22.40;66.80;;;;;;7374540;19;20599;-79
2022/08/26 07:27:08;;;;;;;25.10;14.70;;;22.30;67.50;;;;;;7395904;19;20035;-78
2022/08/26 07:29:39;;;;;;;27.73;14.35;;;22.10;68.10;;;;;;7372091;19;20013;-78
2022/08/26 07:32:09;;;;;;;20.70;12.27;;;22.10;67.00;;;;;;7369903;19;20343;-79
2022/08/26 07:34:42;;;;;;;20.60;11.55;;;22.30;67.60;;;;;;7373370;19;20082;-79
2022/08/26 07:37:11;;;;;;;18.55;12.32;;;22.60;67.50;;;;;;7372301;19;20363;-79
2022/08/26 07:39:41;;;;;;;18.05;12.55;;;22.60;66.40;;;;;;7371650;19;20010;-78
2022/08/26 07:42:11;;;;;;;18.58;11.43;;;22.60;66.50;;;;;;7397260;19;20039;-79
2022/08/26 07:44:41;;;;;;;16.10;11.30;;;22.90;66.10;;;;;;7384868;19;20010;-79
2022/08/26 07:47:11;;;;;;;20.50;10.43;;;22.90;65.20;;;;;;7377714;19;20023;-80
2022/08/26 07:49:42;;;;;;;19.95;11.45;;;23.20;64.90;;;;;;7375322;19;20094;-79
2022/08/26 07:52:11;;;;;;;18.55;11.90;;;23.10;64.50;;;;;;7378202;19;20015;-78
2022/08/26 07:54:40;;;;;;;18.05;12.43;;;23.20;64.40;;;;;;7399997;19;20014;-80
2022/08/26 07:57:09;;;;;;;19.55;12.18;;;23.40;64.10;;;;;;7419368;19;20027;-80
2022/08/26 07:59:37;;;;;;;22.98;13.48;;;23.30;63.90;;;;;;7391362;19;20150;-79
2022/08/26 08:02:06;;;;;;;25.83;13.93;;;23.20;64.40;;;;;;7392590;19;20015;-79
2022/08/26 08:04:35;;;;;;;19.80;12.65;;;23.00;64.60;;;;;;7381187;19;20015;-79
2022/08/26 08:07:06;;;;;;;21.80;14.18;;;23.10;65.60;;;;;;7375578;19;20035;-79
2022/08/26 08:09:35;;;;;;;20.10;13.65;;;22.90;64.70;;;;;;7373252;19;20039;-80
2022/08/26 08:12:04;;;;;;;22.83;13.73;;;22.90;64.90;;;;;;7394111;19;20015;-80
2022/08/26 08:14:35;;;;;;;22.60;13.70;;;22.80;65.10;;;;;;7374478;19;20018;-79
2022/08/26 08:17:04;;;;;;;22.93;12.50;;;22.80;65.30;;;;;;7376446;19;20442;-80
2022/08/26 08:19:32;;;;;;;20.65;12.15;;;23.00;65.20;;;;;;7376989;19;20609;-78
2022/08/26 08:22:03;;;;;;;20.48;12.10;;;23.10;64.70;;;;;;7375010;19;20086;-78
2022/08/26 08:24:35;;;;;;;34.47;22.27;;;23.20;64.70;;;;;;7373921;19;20015;-78
2022/08/26 08:27:04;;;;;;;27.08;16.77;;;23.40;63.90;;;;;;7400985;19;20022;-79
2022/08/26 08:29:33;;;;;;;27.73;14.05;;;23.40;64.10;;;;;;7378032;19;20010;-80
2022/08/26 08:32:03;;;;;;;17.98;11.82;;;23.50;63.60;;;;;;7376917;19;20082;-80
2022/08/26 08:34:32;;;;;;;15.70;11.30;;;23.50;63.70;;;;;;7378750;19;20018;-79
2022/08/26 08:37:01;;;;;;;14.02;11.13;;;23.60;63.40;;;;;;7377796;19;20031;-80
2022/08/26 08:39:32;;;;;;;17.98;12.23;;;23.60;62.90;;;;;;7376213;19;20115;-79
2022/08/26 08:42:24;;;;;;;17.45;11.05;;;23.50;62.40;;;;;;7396091;19;20085;-79
2022/08/26 08:44:55;;;;;;;18.40;10.90;;;23.40;62.50;;;;;;7378335;19;20011;-80
2022/08/26 08:47:32;;;;;;;15.55;9.60;;;23.30;62.70;;;;;;7376620;19;20090;-79
2022/08/26 08:50:10;;;;;;;13.50;9.52;;;23.20;62.90;;;;;;7377301;19;20019;-79
2022/08/26 08:52:42;;;;;;;16.50;7.57;;;23.00;63.70;;;;;;7376569;19;20018;-80
2022/08/26 08:55:15;;;;;;;9.73;6.72;;;23.30;63.50;;;;;;7377061;19;20020;-79
2022/08/26 08:57:57;;;;;;;10.65;7.40;;;23.50;63.00;;;;;;7377261;19;20026;-79
2022/08/26 09:00:27;;;;;;;11.15;6.53;;;23.60;62.40;;;;;;7396983;19;20113;-79
2022/08/26 09:03:03;;;;;;;11.80;7.07;;;23.60;62.50;;;;;;7377088;19;20015;-79
2022/08/26 09:05:38;;;;;;;10.75;7.30;;;23.60;61.50;;;;;;7378852;19;20035;-80
2022/08/26 09:08:12;;;;;;;12.70;7.82;;;23.60;61.40;;;;;;7375183;19;20098;-79
2022/08/26 09:10:44;;;;;;;8.90;5.88;;;23.40;61.50;;;;;;7376550;19;20029;-79
2022/08/26 09:13:19;;;;;;;8.20;4.95;;;23.30;62.70;;;;;;7378627;19;20011;-79
2022/08/26 09:15:56;;;;;;;8.52;5.43;;;23.80;62.70;;;;;;7378099;19;20886;-79
2022/08/26 09:18:52;;;;;;;10.90;5.35;;;24.00;61.60;;;;;;7404639;19;20422;-79
2022/08/26 09:21:24;;;;;;;14.35;5.18;;;24.00;61.40;;;;;;7385306;19;20073;-80
2022/08/26 09:23:55;;;;;;;5.95;4.60;;;23.70;61.40;;;;;;7402288;19;20017;-79
2022/08/26 09:26:27;;;;;;;11.10;5.87;;;23.70;61.60;;;;;;7402198;19;20023;-79
2022/08/26 09:29:03;;;;;;;6.50;4.43;;;24.00;60.60;;;;;;7390900;19;20035;-79
2022/08/26 09:31:34;;;;;;;5.72;4.60;;;23.90;60.90;;;;;;7396943;19;20023;-79
2022/08/26 09:34:07;;;;;;;;;;;23.90;60.90;;;;;;7410528;19;20028;-79
2022/08/26 09:36:38;;;;;;;5.72;5.00;;;24.30;59.50;;;;;;7410817;19;20524;-79
2022/08/26 09:39:13;;;;;;;8.50;5.10;;;24.40;59.40;;;;;;7431761;19;20010;-79
2022/08/26 09:41:42;;;;;;;6.13;3.83;;;24.60;59.00;;;;;;7405259;19;20019;-79
2022/08/26 09:44:19;;;;;;;8.75;4.95;;;24.80;58.60;;;;;;7394270;19;20019;-79
2022/08/26 09:46:55;;;;;;;7.63;4.32;;;24.80;58.10;;;;;;7390856;19;20014;-80
2022/08/26 09:49:31;;;;;;;7.50;4.00;;;24.60;58.70;;;;;;7386017;19;20083;-80
2022/08/26 09:52:12;;;;;;;7.45;4.63;;;24.80;59.00;;;;;;7388678;19;20023;-80
2022/08/26 09:54:42;;;;;;;;;;;24.40;59.00;;;;;;7409792;19;20031;-79
2022/08/26 09:57:21;;;;;;;6.85;4.47;;;24.40;59.00;;;;;;7407456;19;19937;-80
2022/08/26 09:59:52;;;;;;;6.82;3.90;;;24.60;59.30;;;;;;7377327;19;20010;-80
2022/08/26 10:02:43;;;;;;;8.05;4.13;;;24.60;59.00;;;;;;7376885;19;20018;-80
2022/08/26 10:05:18;;;;;;;5.72;4.30;;;24.80;58.60;;;;;;7376917;19;20007;-79
2022/08/26 10:07:50;;;;;;;8.70;4.45;;;24.80;57.80;;;;;;7374368;19;20374;-79
2022/08/26 10:10:23;;;;;;;6.82;4.35;;;24.80;57.80;;;;;;7381815;19;20090;-80
2022/08/26 10:13:04;;;;;;;8.40;4.60;;;24.70;57.40;;;;;;7382380;19;20084;-80
2022/08/26 10:15:44;;;;;;;6.00;4.38;;;24.60;58.10;;;;;;7392893;19;20018;-79
2022/08/26 10:18:19;;;;;;;7.53;4.20;;;24.40;57.60;;;;;;7399574;19;20047;-79
2022/08/26 10:20:56;;;;;;;5.75;4.20;;;24.40;57.80;;;;;;7385784;19;20386;-79
2022/08/26 10:23:28;;;;;;;11.57;4.13;;;24.40;58.00;;;;;;7385547;19;20019;-78
2022/08/26 10:26:01;;;;;;;8.68;3.60;;;24.50;57.30;;;;;;7376372;19;20324;-80
2022/08/26 10:28:37;;;;;;;6.32;4.30;;;24.70;57.80;;;;;;7378451;19;20083;-80
2022/08/26 10:34:25;;;;;;;7.38;4.22;;;24.60;57.50;;;;;;7381073;19;20014;-80
2022/08/26 10:36:59;;;;;;;12.48;3.70;;;24.50;57.60;;;;;;7375279;19;20114;-79
2022/08/26 10:39:36;;;;;;;7.47;3.72;;;24.50;57.90;;;;;;7398604;19;20029;-79
2022/08/26 10:42:09;;;;;;;8.88;4.40;;;24.40;57.30;;;;;;7374439;19;20102;-80
2022/08/26 10:44:41;;;;;;;6.53;4.63;;;24.30;57.90;;;;;;7375654;19;20039;-80
2022/08/26 10:47:19;;;;;;;4.65;3.78;;;24.30;58.10;;;;;;7373427;19;20052;-79
2022/08/26 10:49:50;;;;;;;9.43;3.90;;;24.40;58.00;;;;;;7372884;19;20040;-79
2022/08/26 10:52:23;;;;;;;6.55;3.90;;;24.80;56.80;;;;;;7373278;19;20097;-79
2022/08/26 10:54:59;;;;;;;8.20;4.30;;;25.20;56.70;;;;;;7373332;19;20090;-79
2022/08/26 10:57:39;;;;;;;6.50;3.80;;;25.50;55.40;;;;;;7392182;19;20086;-79
2022/08/26 11:03:04;;;;;;;5.20;3.92;;;25.40;53.50;;;;;;7377536;19;20007;-79
2022/08/26 11:05:33;;;;;;;214.80;145.95;;;25.30;54.30;;;;;;7373751;19;20326;-80
2022/08/26 11:08:34;;;;;;;11.38;6.93;;;25.30;55.00;;;;;;7377622;19;20014;-79
2022/08/26 11:11:07;;;;;;;7.47;5.65;;;25.30;54.50;;;;;;7377005;19;20019;-79
2022/08/26 11:14:02;;;;;;;3.33;3.00;;;25.20;55.30;;;;;;7376599;19;20019;-79
2022/08/26 11:16:36;;;;;;;3.88;2.90;;;25.10;55.00;;;;;;7374401;19;20011;-80
2022/08/26 11:19:10;;;;;;;3.40;2.90;;;25.10;54.90;;;;;;7373107;19;20049;-80
2022/08/26 11:22:04;;;;;;;3.78;3.40;;;25.30;55.20;;;;;;7371375;19;20779;-80
2022/08/26 11:25:05;;;;;;;5.10;4.53;;;25.60;54.40;;;;;;7373242;19;20025;-79
2022/08/26 11:28:06;;;;;;;9.23;3.92;;;25.90;53.80;;;;;;7369975;19;20022;-78
2022/08/26 11:30:42;;;;;;;;;;;26.20;53.50;;;;;;7370394;19;20019;-79
2022/08/26 11:33:11;;;;;;;7.80;3.60;;;26.50;52.20;;;;;;7390920;19;19931;-77
2022/08/26 11:36:04;;;;;;;3.30;3.00;;;26.60;52.60;;;;;;7369858;19;20692;-78
2022/08/26 11:38:35;;;;;;;7.03;2.95;;;26.80;51.00;;;;;;7370571;19;20031;-79
2022/08/26 11:41:13;;;;;;;3.30;2.78;;;27.10;51.50;;;;;;7369786;19;20588;-78
2022/08/26 11:43:42;;;;;;;3.10;2.75;;;27.00;50.80;;;;;;7375732;19;20082;-82
2022/08/26 11:46:13;;;;;;;4.45;2.83;;;26.80;50.80;;;;;;7377771;19;20466;-83
2022/08/26 11:48:44;;;;;;;4.75;2.85;;;26.80;51.70;;;;;;7404085;19;20013;-86
2022/08/26 11:51:24;;;;;;;7.88;3.40;;;26.50;50.80;;;;;;7425352;19;20010;-89
2022/08/26 11:53:53;;;;;;;5.85;2.75;;;26.50;51.30;;;;;;7399866;19;20003;-87
2022/08/26 11:56:28;;;;;;;6.07;2.70;;;26.60;51.20;;;;;;7395080;19;20026;-87
2022/08/26 11:58:59;;;;;;;3.72;2.10;;;26.80;51.20;;;;;;7398690;19;20021;-85
2022/08/26 12:01:29;;;;;;;;;;;26.80;49.30;;;;;;7402537;19;20018;-85
2022/08/26 12:03:59;;;;;;;2.42;2.22;;;26.90;48.70;;;;;;7401786;19;19938;-87
2022/08/26 12:06:34;;;;;;;3.72;2.38;;;27.00;48.70;;;;;;7422220;19;20011;-80
2022/08/26 12:09:06;;;;;;;3.72;2.20;;;27.10;48.20;;;;;;7424879;19;20014;-86
2022/08/26 12:11:38;;;;;;;2.45;2.03;;;27.20;47.70;;;;;;7408450;19;20007;-85
2022/08/26 12:14:10;;;;;;;2.50;2.20;;;27.30;47.50;;;;;;7405730;19;20652;-86
2022/08/26 12:16:41;;;;;;;2.72;2.30;;;27.40;47.10;;;;;;7397269;19;20021;-86
2022/08/26 12:19:25;;;;;;;7.45;3.03;;;27.40;47.10;;;;;;7398947;19;20026;-86
2022/08/26 12:22:01;;;;;;;3.75;2.17;;;27.40;47.40;;;;;;7401012;19;20051;-85
2022/08/26 12:24:30;;;;;;;3.75;2.30;;;27.40;47.40;;;;;;7399707;19;20040;-84
2022/08/26 12:27:15;;;;;;;3.35;2.28;;;27.60;47.90;;;;;;7418741;19;20011;-85
2022/08/26 12:29:44;;;;;;;3.25;2.35;;;27.70;47.60;;;;;;7399913;19;20010;-86
2022/08/26 12:32:17;;;;;;;4.50;2.03;;;27.60;46.60;;;;;;7387110;19;20019;-82
2022/08/26 12:34:48;;;;;;;2.65;2.25;;;27.30;46.00;;;;;;7386106;19;20032;-86
2022/08/26 12:37:20;;;;;;;3.10;2.10;;;27.20;47.00;;;;;;7403548;19;20018;-86
2022/08/26 12:42:41;;;;;;;4.28;2.20;;;27.10;46.40;;;;;;7400923;19;20019;-84
2022/08/26 12:45:11;;;;;;;4.40;2.50;;;27.30;46.60;;;;;;7394240;19;20010;-85
2022/08/26 12:47:42;;;;;;;2.95;2.10;;;27.50;46.40;;;;;;7403417;19;20011;-86
2022/08/26 12:50:19;;;;;;;3.20;2.42;;;27.70;46.70;;;;;;7397804;19;20019;-86
2022/08/26 12:53:01;;;;;;;5.13;2.53;;;27.90;46.00;;;;;;7393262;19;20028;-85
2022/08/26 12:55:41;;;;;;;5.13;2.42;;;28.00;46.50;;;;;;7395297;19;20023;-86
2022/08/26 12:58:20;;;;;;;2.55;1.98;;;28.20;46.00;;;;;;7392747;19;20015;-85
2022/08/26 13:00:51;;;;;;;2.22;2.00;;;28.30;46.00;;;;;;7402231;19;19992;-86
2022/08/26 13:03:42;;;;;;;2.78;2.40;;;28.40;45.80;;;;;;7419768;19;20015;-86
2022/08/26 13:08:46;;;;;;;3.00;2.35;;;28.20;45.00;;;;;;7401432;19;20019;-86
2022/08/26 13:11:19;;;;;;;3.65;2.60;;;27.80;45.80;;;;;;7328192;19;20066;-85
2022/08/26 13:19:03;;;;;;;2.10;1.95;;;27.50;46.70;;;;;;7372422;19;20029;-88
2022/08/26 13:21:37;;;;;;;2.40;2.17;;;27.40;46.90;;;;;;7405979;19;20006;-84
2022/08/26 13:24:14;;;;;;;4.35;2.33;;;27.40;46.70;;;;;;7410776;19;20059;-86
2022/08/26 13:26:44;;;;;;;3.67;2.60;;;27.60;46.30;;;;;;7328608;19;20030;-84
2022/08/26 13:29:22;;;;;;;2.27;2.07;;;27.90;46.10;;;;;;7358575;19;20022;-88
2022/08/26 13:31:51;;;;;;;5.45;2.47;;;28.00;45.60;;;;;;7398072;19;20235;-86